createdAt,value
2023-03-13T00:01:17.091Z,18.03
2023-03-13T00:04:06.045Z,17.60
2023-03-13T00:06:54.462Z,17.47
2023-03-13T00:09:44.193Z,17.40
2023-03-13T00:12:32.678Z,17.83
2023-03-13T00:15:21.015Z,17.50
2023-03-13T00:18:09.453Z,19.40
2023-03-13T00:21:01.431Z,17.80
2023-03-13T00:23:49.997Z,17.10
2023-03-13T00:26:39.731Z,17.90
2023-03-13T00:29:28.082Z,17.97
2023-03-13T00:32:16.463Z,17.10
2023-03-13T00:35:05.308Z,17.37
2023-03-13T00:37:53.686Z,17.37
2023-03-13T00:40:42.052Z,17.77
2023-03-13T00:43:32.584Z,17.33
2023-03-13T00:46:23.263Z,17.43
2023-03-13T00:49:11.658Z,16.87
2023-03-13T00:52:00.529Z,17.00
2023-03-13T00:54:48.958Z,17.00
2023-03-13T00:57:37.600Z,16.63
2023-03-13T01:00:27.457Z,17.63
2023-03-13T01:03:16.321Z,17.20
2023-03-13T01:06:06.985Z,16.57
2023-03-13T01:08:55.716Z,16.33
2023-03-13T01:11:45.175Z,16.80
2023-03-13T01:14:35.070Z,16.60
2023-03-13T01:17:24.960Z,18.10
2023-03-13T01:20:13.962Z,17.33
2023-03-13T01:23:02.293Z,15.97
2023-03-13T01:25:50.686Z,17.03
2023-03-13T01:28:39.786Z,16.40
2023-03-13T01:31:30.073Z,15.90
2023-03-13T01:34:21.309Z,16.10
2023-03-13T01:37:09.656Z,16.17
2023-03-13T01:39:58.172Z,16.40
2023-03-13T01:42:54.188Z,15.90
2023-03-13T01:46:00.073Z,20.17
2023-03-13T01:48:54.687Z,15.77
2023-03-13T01:51:47.204Z,16.10
2023-03-13T01:54:39.314Z,16.03
2023-03-13T01:57:31.512Z,17.03
2023-03-13T02:00:22.968Z,15.40
2023-03-13T02:03:16.592Z,16.77
2023-03-13T02:06:06.401Z,15.50
2023-03-13T02:08:58.232Z,18.20
2023-03-13T02:11:49.627Z,15.37
2023-03-13T02:14:39.966Z,15.23
2023-03-13T02:17:28.751Z,15.57
2023-03-13T02:20:22.262Z,15.67
2023-03-13T02:23:19.961Z,14.90
2023-03-13T02:26:10.374Z,16.93
2023-03-13T02:28:58.773Z,16.13
2023-03-13T02:31:48.938Z,15.40
2023-03-13T02:34:39.655Z,15.00
2023-03-13T02:37:29.949Z,14.90
2023-03-13T02:40:23.279Z,16.27
2023-03-13T02:43:17.010Z,14.90
2023-03-13T02:46:08.847Z,15.90
2023-03-13T02:49:17.550Z,16.10
2023-03-13T02:52:11.917Z,16.40
2023-03-13T02:55:07.535Z,15.10
2023-03-13T02:57:56.587Z,15.90
2023-03-13T03:00:46.570Z,15.10
2023-03-13T03:03:36.198Z,15.03
2023-03-13T03:06:25.632Z,14.97
2023-03-13T03:09:14.383Z,16.17
2023-03-13T03:12:02.979Z,15.27
2023-03-13T03:14:51.476Z,14.80
2023-03-13T03:17:41.339Z,16.80
2023-03-13T03:20:30.684Z,14.60
2023-03-13T03:23:19.018Z,15.30
2023-03-13T03:26:08.183Z,14.50
2023-03-13T03:28:56.819Z,15.47
2023-03-13T03:31:45.712Z,14.97
2023-03-13T03:34:36.590Z,15.27
2023-03-13T03:37:25.107Z,15.67
2023-03-13T03:40:14.358Z,16.50
2023-03-13T03:43:04.048Z,15.57
2023-03-13T03:45:52.623Z,15.00
2023-03-13T03:48:42.647Z,16.37
2023-03-13T03:51:34.206Z,15.67
2023-03-13T03:54:22.895Z,16.57
2023-03-13T03:57:11.363Z,14.90
2023-03-13T04:00:01.334Z,15.97
2023-03-13T04:02:51.033Z,14.57
2023-03-13T04:05:39.697Z,16.27
2023-03-13T04:08:30.104Z,17.43
2023-03-13T04:11:18.847Z,16.70
2023-03-13T04:14:13.014Z,15.40
2023-03-13T04:17:01.513Z,15.37
2023-03-13T04:19:50.715Z,15.40
2023-03-13T04:22:39.318Z,15.77
2023-03-13T04:25:29.381Z,14.60
2023-03-13T04:28:20.481Z,14.90
2023-03-13T04:31:09.367Z,15.87
2023-03-13T04:34:20.801Z,16.47
2023-03-13T04:37:19.832Z,16.90
2023-03-13T04:40:30.923Z,14.60
2023-03-13T04:43:47.004Z,14.90
2023-03-13T04:46:56.759Z,16.20
2023-03-13T04:50:06.172Z,15.30
2023-03-13T04:53:12.466Z,15.30
2023-03-13T04:56:42.118Z,15.70
2023-03-13T04:59:52.330Z,16.53
2023-03-13T05:02:43.265Z,15.50
2023-03-13T05:06:01.613Z,15.20
2023-03-13T05:09:18.913Z,16.17
2023-03-13T05:12:22.451Z,15.13
2023-03-13T05:15:26.459Z,15.50
2023-03-13T05:18:24.167Z,18.20
2023-03-13T05:21:30.910Z,15.10
2023-03-13T05:24:41.793Z,17.40
2023-03-13T05:27:50.018Z,16.77
2023-03-13T05:30:56.793Z,14.80
2023-03-13T05:34:04.044Z,16.60
2023-03-13T05:37:10.656Z,15.40
2023-03-13T05:40:29.109Z,16.77
2023-03-13T05:43:44.788Z,17.80
2023-03-13T05:46:59.446Z,15.73
2023-03-13T05:50:03.028Z,16.57
2023-03-13T05:53:17.723Z,15.50
2023-03-13T05:56:35.005Z,19.93
2023-03-13T05:59:48.230Z,19.23
2023-03-13T06:02:55.312Z,15.07
2023-03-13T06:05:51.167Z,15.90
2023-03-13T06:08:54.504Z,14.70
2023-03-13T06:11:44.811Z,15.97
2023-03-13T06:14:33.324Z,15.20
2023-03-13T06:17:55.337Z,14.50
2023-03-13T06:20:43.784Z,15.30
2023-03-13T06:23:32.106Z,16.13
2023-03-13T06:26:20.524Z,17.20
2023-03-13T06:29:08.894Z,15.67
2023-03-13T06:31:57.501Z,15.87
2023-03-13T06:34:47.375Z,15.77
2023-03-13T06:37:35.930Z,18.10
2023-03-13T06:40:24.381Z,15.20
2023-03-13T06:43:12.757Z,16.60
2023-03-13T06:46:04.881Z,15.10
2023-03-13T06:48:53.516Z,16.00
2023-03-13T06:51:43.203Z,15.47
2023-03-13T06:54:31.550Z,16.27
2023-03-13T06:57:19.864Z,16.60
2023-03-13T07:00:11.475Z,16.87
2023-03-13T07:02:59.801Z,15.77
2023-03-13T07:05:48.197Z,17.63
2023-03-13T07:08:38.251Z,16.13
2023-03-13T07:11:26.706Z,16.27
2023-03-13T07:14:17.392Z,16.03
2023-03-13T07:17:06.069Z,16.70
2023-03-13T07:19:54.509Z,16.30
2023-03-13T07:22:42.977Z,16.37
2023-03-13T07:25:32.845Z,16.50
2023-03-13T07:28:21.213Z,16.50
2023-03-13T07:31:12.159Z,16.47
2023-03-13T07:34:00.609Z,17.07
2023-03-13T07:36:48.945Z,17.20
2023-03-13T07:39:37.236Z,17.87
2023-03-13T07:42:26.949Z,16.60
2023-03-13T07:45:15.306Z,18.23
2023-03-13T07:48:03.632Z,17.57
2023-03-13T07:50:52.081Z,16.90
2023-03-13T07:53:40.772Z,16.87
2023-03-13T07:56:29.238Z,16.77
2023-03-13T07:59:18.996Z,17.10
2023-03-13T08:02:07.805Z,18.17
2023-03-13T08:04:57.880Z,17.33
2023-03-13T08:07:47.238Z,17.63
2023-03-13T08:10:35.762Z,18.20
2023-03-13T08:13:24.082Z,22.13
2023-03-13T08:16:15.137Z,17.50
2023-03-13T08:19:06.174Z,17.30
2023-03-13T08:21:54.755Z,17.80
2023-03-13T08:24:43.136Z,17.43
2023-03-13T08:27:31.572Z,17.67
2023-03-13T08:30:20.411Z,19.50
2023-03-13T08:33:10.136Z,18.13
2023-03-13T08:35:58.572Z,18.27
2023-03-13T08:38:48.143Z,18.13
2023-03-13T08:41:37.217Z,17.83
2023-03-13T08:44:25.697Z,18.57
2023-03-13T08:47:14.002Z,18.03
2023-03-13T08:50:04.325Z,18.97
2023-03-13T08:52:52.638Z,18.60
2023-03-13T08:55:40.993Z,19.10
2023-03-13T08:58:29.585Z,18.40
2023-03-13T09:01:18.308Z,18.17
2023-03-13T09:04:07.258Z,18.33
2023-03-13T09:06:57.098Z,18.90
2023-03-13T09:09:45.685Z,18.80
2023-03-13T09:12:34.008Z,19.10
2023-03-13T09:15:22.666Z,18.50
2023-03-13T09:18:11.474Z,18.40
2023-03-13T09:20:59.891Z,18.17
2023-03-13T09:23:49.699Z,18.10
2023-03-13T09:26:38.707Z,18.17
2023-03-13T09:29:27.076Z,18.27
2023-03-13T09:32:15.436Z,18.67
2023-03-13T09:35:03.739Z,18.13
2023-03-13T09:37:52.083Z,17.87
2023-03-13T09:40:44.256Z,18.43
2023-03-13T09:43:42.474Z,17.73
2023-03-13T09:46:36.580Z,18.00
2023-03-13T09:49:31.285Z,17.83
2023-03-13T09:52:23.393Z,17.23
2023-03-13T09:55:16.622Z,16.93
2023-03-13T09:58:12.694Z,16.83
2023-03-13T10:01:03.969Z,18.30
2023-03-13T10:03:58.847Z,18.23
2023-03-13T10:06:48.906Z,17.30
2023-03-13T10:09:37.533Z,17.00
2023-03-13T10:12:29.610Z,16.10
2023-03-13T10:15:35.891Z,15.97
2023-03-13T10:18:25.767Z,16.03
2023-03-13T10:21:18.752Z,15.70
2023-03-13T10:24:15.400Z,16.73
2023-03-13T10:27:03.756Z,15.50
2023-03-13T10:29:52.145Z,17.43
2023-03-13T10:32:42.739Z,16.00
2023-03-13T10:35:36.068Z,15.10
2023-03-13T10:38:25.726Z,17.93
2023-03-13T10:41:22.051Z,14.20
2023-03-13T10:44:17.713Z,18.77
2023-03-13T10:47:07.694Z,14.57
2023-03-13T10:49:59.214Z,14.30
2023-03-13T10:52:49.052Z,21.37
2023-03-13T10:55:44.200Z,13.10
2023-03-13T10:58:36.043Z,14.43
2023-03-13T11:01:26.714Z,15.43
2023-03-13T11:04:27.138Z,15.13
2023-03-13T11:07:18.356Z,12.30
2023-03-13T11:10:19.007Z,14.53
2023-03-13T11:13:07.457Z,14.57
2023-03-13T11:15:58.928Z,14.20
2023-03-13T11:19:11.129Z,13.20
2023-03-13T11:22:07.641Z,13.37
2023-03-13T11:25:04.885Z,11.57
2023-03-13T11:28:02.171Z,12.53
2023-03-13T11:31:04.998Z,14.47
2023-03-13T11:33:59.012Z,11.83
2023-03-13T11:36:55.494Z,11.27
2023-03-13T11:39:59.382Z,11.33
2023-03-13T11:43:25.079Z,12.27
2023-03-13T11:46:23.156Z,13.80
2023-03-13T11:49:36.079Z,12.23
2023-03-13T11:52:38.870Z,12.20
2023-03-13T11:55:36.488Z,13.53
2023-03-13T11:58:38.022Z,13.70
2023-03-13T12:01:29.068Z,11.90
2023-03-13T12:04:22.850Z,12.07
2023-03-13T12:07:21.800Z,12.27
2023-03-13T12:10:14.239Z,12.03
2023-03-13T12:13:07.185Z,11.23
2023-03-13T12:15:58.133Z,10.47
2023-03-13T12:18:47.321Z,11.63
2023-03-13T12:21:39.296Z,11.80
2023-03-13T12:24:31.102Z,10.43
2023-03-13T12:27:23.655Z,11.07
2023-03-13T12:30:21.965Z,10.53
2023-03-13T12:33:17.953Z,11.83
2023-03-13T12:36:10.869Z,11.20
2023-03-13T12:39:08.237Z,11.80
2023-03-13T12:42:09.312Z,11.57
2023-03-13T12:44:58.483Z,11.40
2023-03-13T12:48:15.837Z,10.53
2023-03-13T12:51:13.860Z,10.60
2023-03-13T12:54:28.661Z,11.40
2023-03-13T12:57:28.503Z,10.17
2023-03-13T13:00:19.224Z,11.40
2023-03-13T13:03:19.678Z,10.93
2023-03-13T13:06:10.594Z,9.87
2023-03-13T13:09:09.832Z,10.30
2023-03-13T13:11:59.841Z,10.70
2023-03-13T13:15:07.504Z,10.20
2023-03-13T13:18:00.700Z,10.03
2023-03-13T13:21:21.162Z,10.60
2023-03-13T13:24:42.773Z,10.63
2023-03-13T13:27:47.079Z,9.90
2023-03-13T13:30:35.770Z,9.73
2023-03-13T13:33:41.160Z,10.00
2023-03-13T13:36:42.754Z,10.53
2023-03-13T13:39:38.018Z,9.73
2023-03-13T13:42:43.689Z,10.50
2023-03-13T13:45:33.730Z,10.13
2023-03-13T13:48:30.257Z,10.00
2023-03-13T13:51:25.926Z,10.10
2023-03-13T13:57:14.207Z,9.70
2023-03-13T14:00:08.021Z,10.13
2023-03-13T14:02:58.468Z,9.40
2023-03-13T14:05:48.844Z,9.73
2023-03-13T14:08:39.360Z,9.40
2023-03-13T14:11:31.475Z,8.80
2023-03-13T14:14:22.401Z,9.50
2023-03-13T14:17:11.014Z,9.20
2023-03-13T14:19:59.389Z,9.13
2023-03-13T14:22:48.859Z,8.93
2023-03-13T14:25:46.284Z,9.80
2023-03-13T14:28:34.686Z,8.60
2023-03-13T14:31:26.800Z,9.70
2023-03-13T14:34:15.284Z,9.00
2023-03-13T14:37:17.650Z,9.43
2023-03-13T14:40:09.551Z,9.47
2023-03-13T14:42:59.994Z,9.20
2023-03-13T14:45:49.208Z,8.57
2023-03-13T14:48:38.973Z,9.63
2023-03-13T14:51:29.171Z,9.93
2023-03-13T14:54:27.794Z,9.17
2023-03-13T14:57:17.558Z,8.70
2023-03-13T15:00:31.813Z,8.83
2023-03-13T15:03:26.689Z,8.70
2023-03-13T15:06:18.950Z,8.47
2023-03-13T15:09:19.756Z,7.80
2023-03-13T15:12:15.043Z,8.27
2023-03-13T15:15:05.436Z,8.40
2023-03-13T15:17:53.771Z,7.60
2023-03-13T15:20:42.113Z,8.37
2023-03-13T15:23:31.830Z,8.63
2023-03-13T15:26:20.211Z,7.60
2023-03-13T15:29:09.941Z,7.83
2023-03-13T15:32:04.106Z,7.70
2023-03-13T15:34:53.061Z,7.20
2023-03-13T15:37:41.413Z,7.60
2023-03-13T15:40:31.941Z,7.53
2023-03-13T15:43:21.739Z,7.77
2023-03-13T15:46:12.497Z,8.30
2023-03-13T15:49:00.924Z,8.37
2023-03-13T15:51:49.331Z,8.03
2023-03-13T15:54:37.679Z,8.07
2023-03-13T15:57:27.670Z,7.30
2023-03-13T16:00:19.274Z,7.63
2023-03-13T16:03:07.776Z,8.03
2023-03-13T16:05:57.495Z,8.07
2023-03-13T16:08:46.225Z,7.80
2023-03-13T16:11:35.053Z,7.30
2023-03-13T16:14:24.768Z,7.43
2023-03-13T16:17:15.439Z,8.43
2023-03-13T16:20:05.666Z,8.23
2023-03-13T16:22:54.082Z,9.30
2023-03-13T16:25:42.495Z,9.30
2023-03-13T16:28:30.862Z,8.20
2023-03-13T16:31:23.652Z,8.23
2023-03-13T16:34:12.185Z,8.50
2023-03-13T16:37:00.639Z,9.10
2023-03-13T16:39:50.702Z,7.40
2023-03-13T16:42:39.146Z,8.13
2023-03-13T16:45:28.185Z,9.37
2023-03-13T16:48:18.721Z,8.93
2023-03-13T16:51:07.550Z,8.80
2023-03-13T16:53:57.293Z,8.83
2023-03-13T16:56:45.768Z,8.53
2023-03-13T16:59:34.101Z,8.47
2023-03-13T17:02:22.555Z,8.83
2023-03-13T17:05:15.723Z,9.57
2023-03-13T17:08:04.680Z,9.00
2023-03-13T17:10:53.550Z,9.37
2023-03-13T17:13:43.961Z,8.90
2023-03-13T17:16:33.919Z,9.40
2023-03-13T17:19:22.294Z,9.37
2023-03-13T17:22:12.985Z,9.20
2023-03-13T17:25:01.513Z,9.60
2023-03-13T17:27:50.003Z,10.03
2023-03-13T17:30:38.493Z,10.37
2023-03-13T17:33:26.919Z,10.33
2023-03-13T17:36:17.282Z,11.70
2023-03-13T17:39:08.793Z,9.50
2023-03-13T17:41:57.843Z,10.80
2023-03-13T17:44:46.217Z,10.80
2023-03-13T17:47:34.545Z,10.60
2023-03-13T17:50:26.430Z,10.23
2023-03-13T17:53:14.728Z,12.50
2023-03-13T17:56:04.842Z,10.03
2023-03-13T17:58:57.674Z,11.10
2023-03-13T18:01:46.579Z,10.37
2023-03-13T18:04:35.166Z,11.03
2023-03-13T18:07:26.293Z,10.37
2023-03-13T18:10:19.645Z,12.80
2023-03-13T18:13:09.390Z,11.30
2023-03-13T18:15:57.767Z,10.60
2023-03-13T18:18:46.286Z,11.10
2023-03-13T18:21:35.292Z,12.83
2023-03-13T18:24:23.865Z,12.10
2023-03-13T18:27:13.920Z,10.90
2023-03-13T18:30:03.825Z,12.80
2023-03-13T18:32:52.401Z,11.03
2023-03-13T18:35:40.818Z,12.17
2023-03-13T18:38:29.106Z,12.30
2023-03-13T18:41:18.172Z,11.53
2023-03-13T18:44:06.601Z,11.80
2023-03-13T18:46:57.282Z,11.60
2023-03-13T18:49:46.971Z,12.10
2023-03-13T18:52:35.375Z,13.10
2023-03-13T18:55:23.922Z,12.30
2023-03-13T18:58:12.656Z,12.73
2023-03-13T19:01:01.063Z,12.40
2023-03-13T19:03:51.122Z,12.40
2023-03-13T19:06:39.483Z,12.00
2023-03-13T19:09:42.615Z,12.87
2023-03-13T19:12:31.672Z,12.40
2023-03-13T19:15:21.818Z,12.90
2023-03-13T19:18:11.540Z,13.70
2023-03-13T19:21:01.250Z,13.70
2023-03-13T19:23:49.866Z,15.10
2023-03-13T19:26:39.525Z,13.37
2023-03-13T19:29:29.324Z,13.40
2023-03-13T19:32:19.209Z,15.00
2023-03-13T19:35:08.495Z,13.17
2023-03-13T19:37:58.143Z,14.43
2023-03-13T19:40:46.537Z,15.10
2023-03-13T19:43:34.883Z,14.27
2023-03-13T19:46:25.926Z,14.40
2023-03-13T19:49:15.775Z,15.43
2023-03-13T19:52:04.369Z,14.77
2023-03-13T19:54:55.771Z,16.27
2023-03-13T19:57:44.293Z,15.53
2023-03-13T20:00:32.683Z,15.23
2023-03-13T20:03:21.030Z,15.83
2023-03-13T20:06:12.322Z,16.00
2023-03-13T20:09:01.962Z,16.07
2023-03-13T20:11:51.685Z,16.70
2023-03-13T20:14:40.601Z,16.43
2023-03-13T20:17:28.895Z,17.80
2023-03-13T20:20:17.944Z,16.07
2023-03-13T20:23:06.307Z,17.17
2023-03-13T20:25:54.769Z,16.77
2023-03-13T20:28:47.253Z,16.17
2023-03-13T20:31:35.827Z,15.10
2023-03-13T20:34:24.325Z,18.53
2023-03-13T20:37:12.681Z,16.03
2023-03-13T20:40:01.162Z,16.03
2023-03-13T20:42:49.522Z,16.53
2023-03-13T20:45:39.169Z,17.10
2023-03-13T20:48:28.031Z,17.70
2023-03-13T20:51:16.709Z,16.87
2023-03-13T20:54:05.382Z,16.97
2023-03-13T20:56:53.654Z,16.60
2023-03-13T20:59:42.178Z,18.20
2023-03-13T21:02:31.810Z,17.23
2023-03-13T21:05:20.309Z,16.50
2023-03-13T21:08:09.612Z,17.80
2023-03-13T21:10:57.930Z,17.70
2023-03-13T21:13:46.596Z,17.60
2023-03-13T21:16:35.021Z,17.10
2023-03-13T21:19:24.728Z,18.63
2023-03-13T21:22:13.228Z,17.53
2023-03-13T21:25:04.839Z,18.20
2023-03-13T21:27:53.272Z,17.90
2023-03-13T21:30:41.592Z,18.10
2023-03-13T21:33:30.028Z,18.00
2023-03-13T21:36:21.719Z,18.10
2023-03-13T21:39:10.096Z,18.33
2023-03-13T21:41:58.443Z,18.73
2023-03-13T21:44:48.247Z,18.33
2023-03-13T21:47:37.581Z,18.27
2023-03-13T21:50:25.968Z,17.80
2023-03-13T21:53:15.720Z,19.30
2023-03-13T21:56:04.802Z,20.57
2023-03-13T21:58:53.180Z,19.80
2023-03-13T22:01:42.401Z,19.07
2023-03-13T22:04:30.729Z,19.50
2023-03-13T22:07:19.067Z,18.07
2023-03-13T22:10:10.013Z,18.73
2023-03-13T22:12:58.424Z,18.87
2023-03-13T22:15:47.191Z,18.27
2023-03-13T22:18:35.554Z,18.90
2023-03-13T22:21:23.937Z,17.97
2023-03-13T22:24:12.936Z,18.67
2023-03-13T22:27:02.643Z,19.00
2023-03-13T22:29:51.004Z,18.43
2023-03-13T22:32:39.441Z,18.33
2023-03-13T22:35:27.929Z,18.27
2023-03-13T22:38:16.245Z,24.93
2023-03-13T22:41:06.742Z,17.30
2023-03-13T22:43:56.436Z,17.50
2023-03-13T22:46:44.839Z,17.87
2023-03-13T22:49:33.131Z,17.27
2023-03-13T22:52:22.216Z,16.80
2023-03-13T22:55:10.677Z,16.80
2023-03-13T22:57:59.063Z,17.73
2023-03-13T23:00:49.891Z,16.57
2023-03-13T23:03:38.304Z,16.83
2023-03-13T23:06:27.257Z,17.40
2023-03-13T23:09:15.643Z,16.07
2023-03-13T23:12:04.102Z,16.57
2023-03-13T23:14:52.850Z,16.33
2023-03-13T23:17:42.763Z,16.10
2023-03-13T23:20:31.069Z,16.10
2023-03-13T23:23:19.536Z,15.60
2023-03-13T23:26:11.092Z,16.30
2023-03-13T23:28:59.544Z,17.17
2023-03-13T23:31:47.821Z,15.80
2023-03-13T23:34:37.613Z,15.80
2023-03-13T23:37:25.971Z,16.80
2023-03-13T23:40:15.505Z,16.20
2023-03-13T23:43:04.052Z,16.30
2023-03-13T23:45:52.436Z,16.00
2023-03-13T23:48:40.741Z,15.70
2023-03-13T23:51:30.704Z,16.30
2023-03-13T23:54:19.102Z,18.03
2023-03-13T23:57:07.869Z,16.00
2023-03-13T23:59:56.215Z,16.43
